sensor_id;sensor_type;location;lat;lon;timestamp;P1;durP1;ratioP1;P2;durP2;ratioP2
7166;SDS011;3625;51.762;14.320;2023-05-10T00:01:53;5.93;;;5.30;;
7166;SDS011;3625;51.762;14.320;2023-05-10T00:04:22;6.03;;;5.53;;
7166;SDS011;3625;51.762;14.320;2023-05-10T00:06:53;5.73;;;5.20;;
7166;SDS011;3625;51.762;14.320;2023-05-10T00:09:22;6.23;;;5.63;;
7166;SDS011;3625;51.762;14.320;2023-05-10T00:11:51;6.90;;;6.23;;
7166;SDS011;3625;51.762;14.320;2023-05-10T00:14:20;6.63;;;5.53;;
7166;SDS011;3625;51.762;14.320;2023-05-10T00:16:50;5.67;;;5.17;;
7166;SDS011;3625;51.762;14.320;2023-05-10T00:19:19;6.40;;;5.90;;
7166;SDS011;3625;51.762;14.320;2023-05-10T00:21:47;7.97;;;5.77;;
7166;SDS011;3625;51.762;14.320;2023-05-10T00:24:16;6.03;;;5.43;;
7166;SDS011;3625;51.762;14.320;2023-05-10T00:26:45;7.17;;;5.50;;
7166;SDS011;3625;51.762;14.320;2023-05-10T00:29:14;7.97;;;5.80;;
7166;SDS011;3625;51.762;14.320;2023-05-10T00:31:42;6.20;;;5.60;;
7166;SDS011;3625;51.762;14.320;2023-05-10T00:34:12;6.00;;;5.40;;
7166;SDS011;3625;51.762;14.320;2023-05-10T00:36:41;6.17;;;5.57;;
7166;SDS011;3625;51.762;14.320;2023-05-10T00:39:10;6.10;;;4.90;;
7166;SDS011;3625;51.762;14.320;2023-05-10T00:41:39;7.57;;;6.33;;
7166;SDS011;3625;51.762;14.320;2023-05-10T00:44:08;6.83;;;5.90;;
7166;SDS011;3625;51.762;14.320;2023-05-10T00:46:36;8.60;;;6.57;;
7166;SDS011;3625;51.762;14.320;2023-05-10T00:49:05;7.07;;;6.37;;
7166;SDS011;3625;51.762;14.320;2023-05-10T00:51:36;6.43;;;5.93;;
7166;SDS011;3625;51.762;14.320;2023-05-10T00:54:05;7.17;;;6.07;;
7166;SDS011;3625;51.762;14.320;2023-05-10T00:56:34;6.83;;;6.13;;
7166;SDS011;3625;51.762;14.320;2023-05-10T00:59:03;6.90;;;6.30;;
7166;SDS011;3625;51.762;14.320;2023-05-10T01:01:31;6.73;;;6.13;;
7166;SDS011;3625;51.762;14.320;2023-05-10T01:04:00;8.03;;;6.60;;
7166;SDS011;3625;51.762;14.320;2023-05-10T01:06:30;7.37;;;6.67;;
7166;SDS011;3625;51.762;14.320;2023-05-10T01:09:00;7.37;;;6.60;;
7166;SDS011;3625;51.762;14.320;2023-05-10T01:11:29;7.27;;;6.67;;
7166;SDS011;3625;51.762;14.320;2023-05-10T01:13:58;11.10;;;6.73;;
7166;SDS011;3625;51.762;14.320;2023-05-10T01:16:27;5.90;;;5.30;;
7166;SDS011;3625;51.762;14.320;2023-05-10T01:18:57;8.87;;;7.20;;
7166;SDS011;3625;51.762;14.320;2023-05-10T01:21:27;7.87;;;6.60;;
7166;SDS011;3625;51.762;14.320;2023-05-10T01:24:12;9.83;;;7.23;;
7166;SDS011;3625;51.762;14.320;2023-05-10T01:27:20;7.53;;;6.53;;
7166;SDS011;3625;51.762;14.320;2023-05-10T01:30:14;7.53;;;6.73;;
7166;SDS011;3625;51.762;14.320;2023-05-10T01:33:16;7.40;;;5.70;;
7166;SDS011;3625;51.762;14.320;2023-05-10T01:35:50;8.10;;;6.90;;
7166;SDS011;3625;51.762;14.320;2023-05-10T01:38:26;7.57;;;6.40;;
7166;SDS011;3625;51.762;14.320;2023-05-10T01:41:08;7.17;;;6.13;;
7166;SDS011;3625;51.762;14.320;2023-05-10T01:43:47;8.13;;;7.13;;
7166;SDS011;3625;51.762;14.320;2023-05-10T01:46:23;9.60;;;7.50;;
7166;SDS011;3625;51.762;14.320;2023-05-10T01:48:57;7.20;;;6.50;;
7166;SDS011;3625;51.762;14.320;2023-05-10T01:51:29;7.63;;;6.93;;
7166;SDS011;3625;51.762;14.320;2023-05-10T01:54:06;8.23;;;6.97;;
7166;SDS011;3625;51.762;14.320;2023-05-10T01:56:40;8.03;;;6.80;;
7166;SDS011;3625;51.762;14.320;2023-05-10T01:59:13;7.47;;;5.67;;
7166;SDS011;3625;51.762;14.320;2023-05-10T02:01:45;10.30;;;7.30;;
7166;SDS011;3625;51.762;14.320;2023-05-10T02:04:19;8.57;;;7.37;;
7166;SDS011;3625;51.762;14.320;2023-05-10T02:06:52;8.77;;;7.43;;
7166;SDS011;3625;51.762;14.320;2023-05-10T02:09:23;9.63;;;6.83;;
7166;SDS011;3625;51.762;14.320;2023-05-10T02:11:55;7.47;;;6.77;;
7166;SDS011;3625;51.762;14.320;2023-05-10T02:14:27;7.10;;;6.27;;
7166;SDS011;3625;51.762;14.320;2023-05-10T02:16:58;8.03;;;7.23;;
7166;SDS011;3625;51.762;14.320;2023-05-10T02:19:31;7.00;;;6.30;;
7166;SDS011;3625;51.762;14.320;2023-05-10T02:22:01;8.20;;;6.37;;
7166;SDS011;3625;51.762;14.320;2023-05-10T02:24:33;9.07;;;6.63;;
7166;SDS011;3625;51.762;14.320;2023-05-10T02:27:04;7.93;;;6.90;;
7166;SDS011;3625;51.762;14.320;2023-05-10T02:29:34;7.20;;;6.40;;
7166;SDS011;3625;51.762;14.320;2023-05-10T02:32:04;7.20;;;6.50;;
7166;SDS011;3625;51.762;14.320;2023-05-10T02:34:38;8.20;;;6.17;;
7166;SDS011;3625;51.762;14.320;2023-05-10T02:37:08;6.97;;;6.00;;
7166;SDS011;3625;51.762;14.320;2023-05-10T02:39:38;8.60;;;5.63;;
7166;SDS011;3625;51.762;14.320;2023-05-10T02:42:11;7.20;;;5.40;;
7166;SDS011;3625;51.762;14.320;2023-05-10T02:44:45;6.40;;;5.50;;
7166;SDS011;3625;51.762;14.320;2023-05-10T02:47:18;7.33;;;6.53;;
7166;SDS011;3625;51.762;14.320;2023-05-10T02:49:48;6.90;;;6.00;;
7166;SDS011;3625;51.762;14.320;2023-05-10T02:52:19;6.83;;;5.37;;
7166;SDS011;3625;51.762;14.320;2023-05-10T02:54:52;6.63;;;5.93;;
7166;SDS011;3625;51.762;14.320;2023-05-10T02:57:25;7.13;;;6.43;;
7166;SDS011;3625;51.762;14.320;2023-05-10T02:59:56;6.70;;;5.83;;
7166;SDS011;3625;51.762;14.320;2023-05-10T03:02:26;10.17;;;5.93;;
7166;SDS011;3625;51.762;14.320;2023-05-10T03:04:58;8.80;;;6.17;;
7166;SDS011;3625;51.762;14.320;2023-05-10T03:07:27;6.53;;;5.87;;
7166;SDS011;3625;51.762;14.320;2023-05-10T03:09:56;5.83;;;5.23;;
7166;SDS011;3625;51.762;14.320;2023-05-10T03:12:27;7.27;;;5.87;;
7166;SDS011;3625;51.762;14.320;2023-05-10T03:15:02;6.37;;;5.77;;
7166;SDS011;3625;51.762;14.320;2023-05-10T03:17:40;5.57;;;4.70;;
7166;SDS011;3625;51.762;14.320;2023-05-10T03:20:20;5.67;;;5.13;;
7166;SDS011;3625;51.762;14.320;2023-05-10T03:22:55;8.17;;;6.07;;
7166;SDS011;3625;51.762;14.320;2023-05-10T03:25:29;5.90;;;5.30;;
7166;SDS011;3625;51.762;14.320;2023-05-10T03:28:02;7.17;;;5.27;;
7166;SDS011;3625;51.762;14.320;2023-05-10T03:30:35;7.17;;;5.63;;
7166;SDS011;3625;51.762;14.320;2023-05-10T03:33:06;5.97;;;5.47;;
7166;SDS011;3625;51.762;14.320;2023-05-10T03:35:40;6.40;;;5.40;;
7166;SDS011;3625;51.762;14.320;2023-05-10T03:38:12;8.00;;;5.63;;
7166;SDS011;3625;51.762;14.320;2023-05-10T03:40:41;6.30;;;5.70;;
7166;SDS011;3625;51.762;14.320;2023-05-10T03:43:10;6.30;;;5.70;;
7166;SDS011;3625;51.762;14.320;2023-05-10T03:45:39;6.37;;;5.63;;
7166;SDS011;3625;51.762;14.320;2023-05-10T03:48:08;5.90;;;5.30;;
7166;SDS011;3625;51.762;14.320;2023-05-10T03:50:36;5.60;;;5.10;;
7166;SDS011;3625;51.762;14.320;2023-05-10T03:53:07;8.33;;;6.03;;
7166;SDS011;3625;51.762;14.320;2023-05-10T03:55:35;6.73;;;5.13;;
7166;SDS011;3625;51.762;14.320;2023-05-10T03:58:04;6.73;;;5.50;;
7166;SDS011;3625;51.762;14.320;2023-05-10T04:00:33;5.83;;;5.07;;
7166;SDS011;3625;51.762;14.320;2023-05-10T04:03:02;10.40;;;5.30;;
7166;SDS011;3625;51.762;14.320;2023-05-10T04:05:48;6.10;;;5.40;;
7166;SDS011;3625;51.762;14.320;2023-05-10T04:08:27;5.57;;;4.83;;
7166;SDS011;3625;51.762;14.320;2023-05-10T04:11:05;5.40;;;4.83;;
7166;SDS011;3625;51.762;14.320;2023-05-10T04:13:34;6.90;;;4.90;;
7166;SDS011;3625;51.762;14.320;2023-05-10T04:16:06;5.50;;;5.00;;
7166;SDS011;3625;51.762;14.320;2023-05-10T04:18:35;6.63;;;4.97;;
7166;SDS011;3625;51.762;14.320;2023-05-10T04:21:03;5.10;;;4.60;;
7166;SDS011;3625;51.762;14.320;2023-05-10T04:23:39;6.40;;;5.07;;
7166;SDS011;3625;51.762;14.320;2023-05-10T04:26:08;5.50;;;5.00;;
7166;SDS011;3625;51.762;14.320;2023-05-10T04:28:37;6.10;;;4.90;;
7166;SDS011;3625;51.762;14.320;2023-05-10T04:31:06;8.60;;;5.67;;
7166;SDS011;3625;51.762;14.320;2023-05-10T04:33:36;6.37;;;4.90;;
7166;SDS011;3625;51.762;14.320;2023-05-10T04:36:05;5.43;;;4.93;;
7166;SDS011;3625;51.762;14.320;2023-05-10T04:38:34;5.73;;;4.33;;
7166;SDS011;3625;51.762;14.320;2023-05-10T04:41:04;6.67;;;4.43;;
7166;SDS011;3625;51.762;14.320;2023-05-10T04:43:34;5.47;;;4.60;;
7166;SDS011;3625;51.762;14.320;2023-05-10T04:46:03;5.97;;;4.53;;
7166;SDS011;3625;51.762;14.320;2023-05-10T04:48:33;4.90;;;4.27;;
7166;SDS011;3625;51.762;14.320;2023-05-10T04:51:02;5.17;;;4.67;;
7166;SDS011;3625;51.762;14.320;2023-05-10T04:53:32;6.07;;;4.97;;
7166;SDS011;3625;51.762;14.320;2023-05-10T04:56:01;5.23;;;4.60;;
7166;SDS011;3625;51.762;14.320;2023-05-10T04:58:34;4.33;;;3.93;;
7166;SDS011;3625;51.762;14.320;2023-05-10T05:01:06;6.40;;;4.60;;
7166;SDS011;3625;51.762;14.320;2023-05-10T05:03:36;5.43;;;4.10;;
7166;SDS011;3625;51.762;14.320;2023-05-10T05:06:06;5.10;;;3.90;;
7166;SDS011;3625;51.762;14.320;2023-05-10T05:08:35;5.60;;;4.57;;
7166;SDS011;3625;51.762;14.320;2023-05-10T05:11:05;5.60;;;4.20;;
7166;SDS011;3625;51.762;14.320;2023-05-10T05:13:36;7.50;;;4.73;;
7166;SDS011;3625;51.762;14.320;2023-05-10T05:16:05;4.30;;;3.80;;
7166;SDS011;3625;51.762;14.320;2023-05-10T05:18:34;4.57;;;4.13;;
7166;SDS011;3625;51.762;14.320;2023-05-10T05:21:03;5.67;;;4.00;;
7166;SDS011;3625;51.762;14.320;2023-05-10T05:23:41;6.20;;;4.20;;
7166;SDS011;3625;51.762;14.320;2023-05-10T05:26:09;4.10;;;3.70;;
7166;SDS011;3625;51.762;14.320;2023-05-10T05:28:40;4.17;;;3.77;;
7166;SDS011;3625;51.762;14.320;2023-05-10T05:31:09;4.67;;;4.03;;
7166;SDS011;3625;51.762;14.320;2023-05-10T05:33:38;4.20;;;3.80;;
7166;SDS011;3625;51.762;14.320;2023-05-10T05:36:07;5.93;;;4.10;;
7166;SDS011;3625;51.762;14.320;2023-05-10T05:38:36;4.20;;;3.57;;
7166;SDS011;3625;51.762;14.320;2023-05-10T05:41:04;4.70;;;4.13;;
7166;SDS011;3625;51.762;14.320;2023-05-10T05:43:33;4.17;;;3.50;;
7166;SDS011;3625;51.762;14.320;2023-05-10T05:46:05;3.93;;;3.53;;
7166;SDS011;3625;51.762;14.320;2023-05-10T05:48:34;6.73;;;3.37;;
7166;SDS011;3625;51.762;14.320;2023-05-10T05:51:03;4.20;;;3.70;;
7166;SDS011;3625;51.762;14.320;2023-05-10T05:53:35;4.60;;;3.47;;
7166;SDS011;3625;51.762;14.320;2023-05-10T05:56:04;4.20;;;3.90;;
7166;SDS011;3625;51.762;14.320;2023-05-10T05:58:34;3.83;;;3.30;;
7166;SDS011;3625;51.762;14.320;2023-05-10T06:01:03;3.43;;;3.13;;
7166;SDS011;3625;51.762;14.320;2023-05-10T06:03:34;3.47;;;2.80;;
7166;SDS011;3625;51.762;14.320;2023-05-10T06:06:05;4.10;;;3.50;;
7166;SDS011;3625;51.762;14.320;2023-05-10T06:08:34;3.90;;;3.15;;
7166;SDS011;3625;51.762;14.320;2023-05-10T06:11:03;4.27;;;3.13;;
7166;SDS011;3625;51.762;14.320;2023-05-10T06:13:31;3.40;;;3.10;;
7166;SDS011;3625;51.762;14.320;2023-05-10T06:16:01;3.70;;;3.00;;
7166;SDS011;3625;51.762;14.320;2023-05-10T06:18:32;3.80;;;2.83;;
7166;SDS011;3625;51.762;14.320;2023-05-10T06:21:01;3.33;;;3.03;;
7166;SDS011;3625;51.762;14.320;2023-05-10T06:23:30;3.70;;;2.85;;
7166;SDS011;3625;51.762;14.320;2023-05-10T06:25:58;2.88;;;2.60;;
7166;SDS011;3625;51.762;14.320;2023-05-10T06:28:27;4.70;;;3.03;;
7166;SDS011;3625;51.762;14.320;2023-05-10T06:30:57;3.22;;;2.92;;
7166;SDS011;3625;51.762;14.320;2023-05-10T06:33:26;5.43;;;2.97;;
7166;SDS011;3625;51.762;14.320;2023-05-10T06:35:56;4.40;;;3.03;;
7166;SDS011;3625;51.762;14.320;2023-05-10T06:38:25;3.30;;;2.80;;
7166;SDS011;3625;51.762;14.320;2023-05-10T06:40:54;2.90;;;2.70;;
7166;SDS011;3625;51.762;14.320;2023-05-10T06:43:23;4.50;;;2.95;;
7166;SDS011;3625;51.762;14.320;2023-05-10T06:45:52;3.10;;;2.80;;
7166;SDS011;3625;51.762;14.320;2023-05-10T06:48:21;3.85;;;2.58;;
7166;SDS011;3625;51.762;14.320;2023-05-10T06:51:12;3.38;;;2.88;;
7166;SDS011;3625;51.762;14.320;2023-05-10T06:53:41;2.72;;;2.53;;
7166;SDS011;3625;51.762;14.320;2023-05-10T06:56:09;4.20;;;3.20;;
7166;SDS011;3625;51.762;14.320;2023-05-10T06:58:38;2.80;;;2.60;;
7166;SDS011;3625;51.762;14.320;2023-05-10T07:01:07;5.53;;;2.80;;
7166;SDS011;3625;51.762;14.320;2023-05-10T07:03:36;3.28;;;2.88;;
7166;SDS011;3625;51.762;14.320;2023-05-10T07:06:05;2.92;;;2.63;;
7166;SDS011;3625;51.762;14.320;2023-05-10T07:08:45;3.58;;;2.60;;
7166;SDS011;3625;51.762;14.320;2023-05-10T07:11:15;2.58;;;2.38;;
7166;SDS011;3625;51.762;14.320;2023-05-10T07:13:44;4.25;;;2.70;;
7166;SDS011;3625;51.762;14.320;2023-05-10T07:16:12;2.88;;;2.58;;
7166;SDS011;3625;51.762;14.320;2023-05-10T07:18:41;4.47;;;2.40;;
7166;SDS011;3625;51.762;14.320;2023-05-10T07:21:10;4.43;;;2.67;;
7166;SDS011;3625;51.762;14.320;2023-05-10T07:23:39;2.50;;;2.30;;
7166;SDS011;3625;51.762;14.320;2023-05-10T07:26:11;3.05;;;2.72;;
7166;SDS011;3625;51.762;14.320;2023-05-10T07:28:41;4.65;;;2.60;;
7166;SDS011;3625;51.762;14.320;2023-05-10T07:31:10;2.60;;;2.40;;
7166;SDS011;3625;51.762;14.320;2023-05-10T07:33:38;3.03;;;2.65;;
7166;SDS011;3625;51.762;14.320;2023-05-10T07:36:07;3.17;;;2.33;;
7166;SDS011;3625;51.762;14.320;2023-05-10T07:38:36;6.25;;;2.63;;
7166;SDS011;3625;51.762;14.320;2023-05-10T07:41:06;2.78;;;2.42;;
7166;SDS011;3625;51.762;14.320;2023-05-10T07:43:36;3.30;;;2.40;;
7166;SDS011;3625;51.762;14.320;2023-05-10T07:46:06;2.47;;;2.28;;
7166;SDS011;3625;51.762;14.320;2023-05-10T07:48:36;2.70;;;2.50;;
7166;SDS011;3625;51.762;14.320;2023-05-10T07:51:05;5.90;;;2.72;;
7166;SDS011;3625;51.762;14.320;2023-05-10T07:53:35;3.00;;;2.63;;
7166;SDS011;3625;51.762;14.320;2023-05-10T07:56:19;3.58;;;2.65;;
7166;SDS011;3625;51.762;14.320;2023-05-10T07:58:52;3.58;;;2.47;;
7166;SDS011;3625;51.762;14.320;2023-05-10T08:01:21;2.50;;;2.17;;
7166;SDS011;3625;51.762;14.320;2023-05-10T08:03:50;2.53;;;2.28;;
7166;SDS011;3625;51.762;14.320;2023-05-10T08:06:20;3.78;;;2.00;;
7166;SDS011;3625;51.762;14.320;2023-05-10T08:08:49;2.72;;;2.33;;
7166;SDS011;3625;51.762;14.320;2023-05-10T08:11:18;2.33;;;2.13;;
7166;SDS011;3625;51.762;14.320;2023-05-10T08:13:48;7.63;;;2.40;;
7166;SDS011;3625;51.762;14.320;2023-05-10T08:16:19;13.15;;;2.85;;
7166;SDS011;3625;51.762;14.320;2023-05-10T08:18:48;6.90;;;2.20;;
7166;SDS011;3625;51.762;14.320;2023-05-10T08:21:17;7.18;;;2.15;;
7166;SDS011;3625;51.762;14.320;2023-05-10T08:23:46;5.65;;;2.30;;
7166;SDS011;3625;51.762;14.320;2023-05-10T08:26:15;7.47;;;2.22;;
7166;SDS011;3625;51.762;14.320;2023-05-10T08:28:44;5.30;;;2.08;;
7166;SDS011;3625;51.762;14.320;2023-05-10T08:31:12;7.75;;;2.13;;
7166;SDS011;3625;51.762;14.320;2023-05-10T08:33:43;4.13;;;2.08;;
7166;SDS011;3625;51.762;14.320;2023-05-10T08:36:12;4.80;;;2.40;;
7166;SDS011;3625;51.762;14.320;2023-05-10T08:38:46;5.38;;;2.53;;
7166;SDS011;3625;51.762;14.320;2023-05-10T08:41:16;7.25;;;2.30;;
7166;SDS011;3625;51.762;14.320;2023-05-10T08:43:47;7.03;;;2.60;;
7166;SDS011;3625;51.762;14.320;2023-05-10T08:46:16;7.78;;;2.40;;
7166;SDS011;3625;51.762;14.320;2023-05-10T08:48:48;4.78;;;2.40;;
7166;SDS011;3625;51.762;14.320;2023-05-10T08:51:19;9.32;;;2.35;;
7166;SDS011;3625;51.762;14.320;2023-05-10T08:53:50;6.57;;;2.33;;
7166;SDS011;3625;51.762;14.320;2023-05-10T08:56:19;3.35;;;2.05;;
7166;SDS011;3625;51.762;14.320;2023-05-10T08:58:47;4.05;;;2.30;;
7166;SDS011;3625;51.762;14.320;2023-05-10T09:01:18;2.78;;;2.13;;
7166;SDS011;3625;51.762;14.320;2023-05-10T09:03:49;4.32;;;2.05;;
7166;SDS011;3625;51.762;14.320;2023-05-10T09:06:19;3.33;;;2.38;;
7166;SDS011;3625;51.762;14.320;2023-05-10T09:08:48;3.05;;;2.30;;
7166;SDS011;3625;51.762;14.320;2023-05-10T09:11:17;3.05;;;2.20;;
7166;SDS011;3625;51.762;14.320;2023-05-10T09:13:47;5.95;;;2.33;;
7166;SDS011;3625;51.762;14.320;2023-05-10T09:16:17;4.45;;;2.42;;
7166;SDS011;3625;51.762;14.320;2023-05-10T09:18:49;7.22;;;2.60;;
7166;SDS011;3625;51.762;14.320;2023-05-10T09:21:19;7.28;;;2.28;;
7166;SDS011;3625;51.762;14.320;2023-05-10T09:23:48;2.20;;;2.00;;
7166;SDS011;3625;51.762;14.320;2023-05-10T09:26:21;5.78;;;2.30;;
7166;SDS011;3625;51.762;14.320;2023-05-10T09:28:50;4.22;;;2.40;;
7166;SDS011;3625;51.762;14.320;2023-05-10T09:31:21;3.17;;;2.33;;
7166;SDS011;3625;51.762;14.320;2023-05-10T09:33:53;3.42;;;2.28;;
7166;SDS011;3625;51.762;14.320;2023-05-10T09:36:21;3.78;;;2.00;;
7166;SDS011;3625;51.762;14.320;2023-05-10T09:38:50;3.97;;;1.80;;
7166;SDS011;3625;51.762;14.320;2023-05-10T09:41:20;4.15;;;2.00;;
7166;SDS011;3625;51.762;14.320;2023-05-10T09:43:50;2.28;;;2.08;;
7166;SDS011;3625;51.762;14.320;2023-05-10T09:46:23;2.75;;;1.80;;
7166;SDS011;3625;51.762;14.320;2023-05-10T09:48:53;6.32;;;1.92;;
7166;SDS011;3625;51.762;14.320;2023-05-10T09:51:22;2.50;;;1.80;;
7166;SDS011;3625;51.762;14.320;2023-05-10T09:54:08;2.20;;;2.10;;
7166;SDS011;3625;51.762;14.320;2023-05-10T09:56:38;2.58;;;1.92;;
7166;SDS011;3625;51.762;14.320;2023-05-10T09:59:09;2.88;;;2.35;;
7166;SDS011;3625;51.762;14.320;2023-05-10T10:01:39;2.65;;;2.10;;
7166;SDS011;3625;51.762;14.320;2023-05-10T10:04:10;4.20;;;2.08;;
7166;SDS011;3625;51.762;14.320;2023-05-10T10:06:39;3.28;;;1.75;;
7166;SDS011;3625;51.762;14.320;2023-05-10T10:09:11;6.32;;;2.03;;
7166;SDS011;3625;51.762;14.320;2023-05-10T10:11:41;2.33;;;1.83;;
7166;SDS011;3625;51.762;14.320;2023-05-10T10:14:10;3.42;;;1.65;;
7166;SDS011;3625;51.762;14.320;2023-05-10T10:16:39;2.83;;;1.98;;
7166;SDS011;3625;51.762;14.320;2023-05-10T10:19:30;4.03;;;3.35;;
7166;SDS011;3625;51.762;14.320;2023-05-10T10:22:02;1.80;;;1.70;;
7166;SDS011;3625;51.762;14.320;2023-05-10T10:24:30;3.33;;;2.10;;
7166;SDS011;3625;51.762;14.320;2023-05-10T10:27:01;2.70;;;1.80;;
7166;SDS011;3625;51.762;14.320;2023-05-10T10:29:59;2.10;;;1.90;;
7166;SDS011;3625;51.762;14.320;2023-05-10T10:32:38;2.63;;;1.73;;
7166;SDS011;3625;51.762;14.320;2023-05-10T10:35:24;2.60;;;1.73;;
7166;SDS011;3625;51.762;14.320;2023-05-10T10:37:53;3.75;;;2.25;;
7166;SDS011;3625;51.762;14.320;2023-05-10T10:40:25;2.58;;;1.60;;
7166;SDS011;3625;51.762;14.320;2023-05-10T10:42:57;2.15;;;1.70;;
7166;SDS011;3625;51.762;14.320;2023-05-10T10:45:47;7.05;;;2.08;;
7166;SDS011;3625;51.762;14.320;2023-05-10T10:48:39;6.03;;;1.85;;
7166;SDS011;3625;51.762;14.320;2023-05-10T10:51:10;5.43;;;2.28;;
7166;SDS011;3625;51.762;14.320;2023-05-10T10:53:42;2.50;;;1.80;;
7166;SDS011;3625;51.762;14.320;2023-05-10T10:56:12;2.65;;;1.88;;
7166;SDS011;3625;51.762;14.320;2023-05-10T10:58:42;5.28;;;2.03;;
7166;SDS011;3625;51.762;14.320;2023-05-10T11:01:18;3.67;;;2.22;;
7166;SDS011;3625;51.762;14.320;2023-05-10T11:06:48;2.63;;;1.73;;
7166;SDS011;3625;51.762;14.320;2023-05-10T11:09:17;4.70;;;2.20;;
7166;SDS011;3625;51.762;14.320;2023-05-10T11:11:51;2.67;;;1.75;;
7166;SDS011;3625;51.762;14.320;2023-05-10T11:14:21;2.08;;;1.70;;
7166;SDS011;3625;51.762;14.320;2023-05-10T11:16:50;4.38;;;1.88;;
7166;SDS011;3625;51.762;14.320;2023-05-10T11:19:19;5.13;;;2.00;;
7166;SDS011;3625;51.762;14.320;2023-05-10T11:21:50;3.15;;;1.98;;
7166;SDS011;3625;51.762;14.320;2023-05-10T11:24:39;6.30;;;1.90;;
7166;SDS011;3625;51.762;14.320;2023-05-10T11:27:24;1.98;;;1.70;;
7166;SDS011;3625;51.762;14.320;2023-05-10T11:29:53;5.18;;;1.73;;
7166;SDS011;3625;51.762;14.320;2023-05-10T11:32:22;5.13;;;2.05;;
7166;SDS011;3625;51.762;14.320;2023-05-10T11:34:51;1.90;;;1.75;;
7166;SDS011;3625;51.762;14.320;2023-05-10T11:37:21;2.78;;;1.67;;
7166;SDS011;3625;51.762;14.320;2023-05-10T11:39:50;3.60;;;2.00;;
7166;SDS011;3625;51.762;14.320;2023-05-10T11:42:18;3.25;;;1.70;;
7166;SDS011;3625;51.762;14.320;2023-05-10T11:44:47;2.78;;;1.60;;
7166;SDS011;3625;51.762;14.320;2023-05-10T11:47:16;2.28;;;1.55;;
7166;SDS011;3625;51.762;14.320;2023-05-10T11:49:44;3.70;;;1.92;;
7166;SDS011;3625;51.762;14.320;2023-05-10T11:52:13;2.15;;;1.75;;
7166;SDS011;3625;51.762;14.320;2023-05-10T11:54:47;3.28;;;1.70;;
7166;SDS011;3625;51.762;14.320;2023-05-10T11:57:19;6.90;;;2.03;;
7166;SDS011;3625;51.762;14.320;2023-05-10T11:59:53;1.90;;;1.80;;
7166;SDS011;3625;51.762;14.320;2023-05-10T12:02:22;4.13;;;2.08;;
7166;SDS011;3625;51.762;14.320;2023-05-10T12:04:51;3.38;;;2.13;;
7166;SDS011;3625;51.762;14.320;2023-05-10T12:07:20;1.92;;;1.65;;
7166;SDS011;3625;51.762;14.320;2023-05-10T12:10:03;2.67;;;2.00;;
7166;SDS011;3625;51.762;14.320;2023-05-10T12:12:37;2.83;;;1.75;;
7166;SDS011;3625;51.762;14.320;2023-05-10T12:15:11;2.65;;;1.88;;
7166;SDS011;3625;51.762;14.320;2023-05-10T12:17:45;4.68;;;2.15;;
7166;SDS011;3625;51.762;14.320;2023-05-10T12:20:18;2.28;;;1.92;;
7166;SDS011;3625;51.762;14.320;2023-05-10T12:22:49;4.70;;;1.77;;
7166;SDS011;3625;51.762;14.320;2023-05-10T12:25:21;2.75;;;1.95;;
7166;SDS011;3625;51.762;14.320;2023-05-10T12:27:51;2.20;;;2.00;;
7166;SDS011;3625;51.762;14.320;2023-05-10T12:30:22;2.10;;;1.80;;
7166;SDS011;3625;51.762;14.320;2023-05-10T12:32:52;3.13;;;1.95;;
7166;SDS011;3625;51.762;14.320;2023-05-10T12:35:21;2.13;;;1.80;;
7166;SDS011;3625;51.762;14.320;2023-05-10T12:37:50;2.88;;;1.70;;
7166;SDS011;3625;51.762;14.320;2023-05-10T12:40:20;4.30;;;1.83;;
7166;SDS011;3625;51.762;14.320;2023-05-10T12:42:49;1.63;;;1.52;;
7166;SDS011;3625;51.762;14.320;2023-05-10T12:45:18;2.28;;;1.52;;
7166;SDS011;3625;51.762;14.320;2023-05-10T12:47:48;2.17;;;1.60;;
7166;SDS011;3625;51.762;14.320;2023-05-10T12:50:17;1.95;;;1.65;;
7166;SDS011;3625;51.762;14.320;2023-05-10T12:52:46;1.98;;;1.80;;
7166;SDS011;3625;51.762;14.320;2023-05-10T12:55:14;1.92;;;1.75;;
7166;SDS011;3625;51.762;14.320;2023-05-10T12:57:44;3.65;;;1.90;;
7166;SDS011;3625;51.762;14.320;2023-05-10T13:00:14;2.35;;;1.60;;
7166;SDS011;3625;51.762;14.320;2023-05-10T13:02:43;3.42;;;2.03;;
7166;SDS011;3625;51.762;14.320;2023-05-10T13:05:12;5.07;;;1.90;;
7166;SDS011;3625;51.762;14.320;2023-05-10T13:07:41;3.17;;;1.73;;
7166;SDS011;3625;51.762;14.320;2023-05-10T13:10:10;2.10;;;1.90;;
7166;SDS011;3625;51.762;14.320;2023-05-10T13:12:39;1.92;;;1.70;;
7166;SDS011;3625;51.762;14.320;2023-05-10T13:15:09;2.10;;;1.80;;
7166;SDS011;3625;51.762;14.320;2023-05-10T13:17:38;3.97;;;1.80;;
7166;SDS011;3625;51.762;14.320;2023-05-10T13:20:09;2.85;;;1.92;;
7166;SDS011;3625;51.762;14.320;2023-05-10T13:22:38;3.20;;;1.75;;
7166;SDS011;3625;51.762;14.320;2023-05-10T13:25:08;2.97;;;2.10;;
7166;SDS011;3625;51.762;14.320;2023-05-10T13:27:37;2.88;;;1.80;;
7166;SDS011;3625;51.762;14.320;2023-05-10T13:30:06;1.67;;;1.58;;
7166;SDS011;3625;51.762;14.320;2023-05-10T13:32:37;2.00;;;1.80;;
7166;SDS011;3625;51.762;14.320;2023-05-10T13:35:07;3.83;;;1.80;;
7166;SDS011;3625;51.762;14.320;2023-05-10T13:37:36;2.90;;;2.00;;
7166;SDS011;3625;51.762;14.320;2023-05-10T13:40:05;3.50;;;2.17;;
7166;SDS011;3625;51.762;14.320;2023-05-10T13:42:35;3.58;;;1.75;;
7166;SDS011;3625;51.762;14.320;2023-05-10T13:45:04;2.35;;;1.90;;
7166;SDS011;3625;51.762;14.320;2023-05-10T13:47:35;3.28;;;1.90;;
7166;SDS011;3625;51.762;14.320;2023-05-10T13:50:04;2.08;;;1.48;;
7166;SDS011;3625;51.762;14.320;2023-05-10T13:52:34;2.00;;;1.80;;
7166;SDS011;3625;51.762;14.320;2023-05-10T13:55:02;2.45;;;1.60;;
7166;SDS011;3625;51.762;14.320;2023-05-10T13:57:32;4.53;;;1.85;;
7166;SDS011;3625;51.762;14.320;2023-05-10T14:00:02;2.95;;;1.70;;
7166;SDS011;3625;51.762;14.320;2023-05-10T14:02:34;4.57;;;2.10;;
7166;SDS011;3625;51.762;14.320;2023-05-10T14:05:03;2.33;;;1.77;;
7166;SDS011;3625;51.762;14.320;2023-05-10T14:07:33;2.00;;;1.80;;
7166;SDS011;3625;51.762;14.320;2023-05-10T14:10:01;2.83;;;1.70;;
7166;SDS011;3625;51.762;14.320;2023-05-10T14:12:31;1.90;;;1.63;;
7166;SDS011;3625;51.762;14.320;2023-05-10T14:14:59;2.28;;;2.08;;
7166;SDS011;3625;51.762;14.320;2023-05-10T14:17:28;2.38;;;2.15;;
7166;SDS011;3625;51.762;14.320;2023-05-10T14:19:59;2.03;;;1.70;;
7166;SDS011;3625;51.762;14.320;2023-05-10T14:22:28;3.08;;;1.73;;
7166;SDS011;3625;51.762;14.320;2023-05-10T14:24:57;3.28;;;1.65;;
7166;SDS011;3625;51.762;14.320;2023-05-10T14:27:26;3.67;;;1.65;;
7166;SDS011;3625;51.762;14.320;2023-05-10T14:29:54;2.25;;;2.05;;
7166;SDS011;3625;51.762;14.320;2023-05-10T14:32:23;5.10;;;2.00;;
7166;SDS011;3625;51.762;14.320;2023-05-10T14:34:53;2.60;;;2.15;;
7166;SDS011;3625;51.762;14.320;2023-05-10T14:37:24;2.47;;;1.67;;
7166;SDS011;3625;51.762;14.320;2023-05-10T14:39:53;3.60;;;1.58;;
7166;SDS011;3625;51.762;14.320;2023-05-10T14:42:22;4.50;;;1.98;;
7166;SDS011;3625;51.762;14.320;2023-05-10T14:44:51;2.15;;;1.77;;
7166;SDS011;3625;51.762;14.320;2023-05-10T14:47:19;2.30;;;2.10;;
7166;SDS011;3625;51.762;14.320;2023-05-10T14:49:48;3.17;;;2.03;;
7166;SDS011;3625;51.762;14.320;2023-05-10T14:52:17;2.20;;;1.60;;
7166;SDS011;3625;51.762;14.320;2023-05-10T14:54:48;3.90;;;2.03;;
7166;SDS011;3625;51.762;14.320;2023-05-10T14:57:16;1.80;;;1.70;;
7166;SDS011;3625;51.762;14.320;2023-05-10T14:59:45;1.70;;;1.45;;
7166;SDS011;3625;51.762;14.320;2023-05-10T15:02:14;3.05;;;1.52;;
7166;SDS011;3625;51.762;14.320;2023-05-10T15:04:44;1.75;;;1.60;;
7166;SDS011;3625;51.762;14.320;2023-05-10T15:07:13;1.52;;;1.40;;
7166;SDS011;3625;51.762;14.320;2023-05-10T15:09:43;3.30;;;1.80;;
7166;SDS011;3625;51.762;14.320;2023-05-10T15:12:14;1.80;;;1.70;;
7166;SDS011;3625;51.762;14.320;2023-05-10T15:14:42;2.80;;;1.60;;
7166;SDS011;3625;51.762;14.320;2023-05-10T15:17:12;2.30;;;1.95;;
7166;SDS011;3625;51.762;14.320;2023-05-10T15:19:42;2.85;;;2.20;;
7166;SDS011;3625;51.762;14.320;2023-05-10T15:22:11;1.80;;;1.70;;
7166;SDS011;3625;51.762;14.320;2023-05-10T15:24:40;2.38;;;2.00;;
7166;SDS011;3625;51.762;14.320;2023-05-10T15:27:09;3.38;;;1.80;;